sensor_id;sensor_type;location;lat;lon;timestamp;temperature;humidity
22974;DHT22;11653;50.848;4.584;2024-01-27T00:01:24;2.80;99.90
22974;DHT22;11653;50.848;4.584;2024-01-27T00:03:50;2.80;99.90
22974;DHT22;11653;50.848;4.584;2024-01-27T00:06:16;2.80;99.90
22974;DHT22;11653;50.848;4.584;2024-01-27T00:08:42;2.80;99.90
22974;DHT22;11653;50.848;4.584;2024-01-27T00:11:08;2.80;99.90
22974;DHT22;11653;50.848;4.584;2024-01-27T00:13:33;2.70;99.90
22974;DHT22;11653;50.848;4.584;2024-01-27T00:15:59;2.70;99.90
22974;DHT22;11653;50.848;4.584;2024-01-27T00:18:25;2.70;99.90
22974;DHT22;11653;50.848;4.584;2024-01-27T00:20:50;2.70;99.90
22974;DHT22;11653;50.848;4.584;2024-01-27T00:23:16;2.70;99.90
22974;DHT22;11653;50.848;4.584;2024-01-27T00:25:42;2.80;99.90
22974;DHT22;11653;50.848;4.584;2024-01-27T00:28:07;2.70;99.90
22974;DHT22;11653;50.848;4.584;2024-01-27T00:30:33;2.70;99.90
22974;DHT22;11653;50.848;4.584;2024-01-27T00:32:59;2.60;99.90
22974;DHT22;11653;50.848;4.584;2024-01-27T00:35:24;2.60;99.90
22974;DHT22;11653;50.848;4.584;2024-01-27T00:37:50;2.60;99.90
22974;DHT22;11653;50.848;4.584;2024-01-27T00:40:16;2.60;99.90
22974;DHT22;11653;50.848;4.584;2024-01-27T00:42:41;2.60;99.90
22974;DHT22;11653;50.848;4.584;2024-01-27T00:45:07;2.60;99.90
22974;DHT22;11653;50.848;4.584;2024-01-27T00:47:33;2.50;99.90
22974;DHT22;11653;50.848;4.584;2024-01-27T00:49:59;2.50;99.90
22974;DHT22;11653;50.848;4.584;2024-01-27T00:52:25;2.50;99.90
22974;DHT22;11653;50.848;4.584;2024-01-27T00:54:51;2.50;99.90
22974;DHT22;11653;50.848;4.584;2024-01-27T00:57:17;2.70;99.90
22974;DHT22;11653;50.848;4.584;2024-01-27T00:59:43;2.60;99.90
22974;DHT22;11653;50.848;4.584;2024-01-27T01:02:09;2.50;99.90
22974;DHT22;11653;50.848;4.584;2024-01-27T01:04:35;2.40;99.90
22974;DHT22;11653;50.848;4.584;2024-01-27T01:07:00;2.40;99.90
22974;DHT22;11653;50.848;4.584;2024-01-27T01:09:26;2.40;99.90
22974;DHT22;11653;50.848;4.584;2024-01-27T01:11:52;2.30;99.90
22974;DHT22;11653;50.848;4.584;2024-01-27T01:14:17;2.40;99.90
22974;DHT22;11653;50.848;4.584;2024-01-27T01:16:43;2.50;99.90
22974;DHT22;11653;50.848;4.584;2024-01-27T01:19:09;2.30;99.90
22974;DHT22;11653;50.848;4.584;2024-01-27T01:21:34;2.30;99.90
22974;DHT22;11653;50.848;4.584;2024-01-27T01:24:00;2.30;99.90
22974;DHT22;11653;50.848;4.584;2024-01-27T01:26:26;2.20;99.90
22974;DHT22;11653;50.848;4.584;2024-01-27T01:28:51;2.20;99.90
22974;DHT22;11653;50.848;4.584;2024-01-27T01:31:17;2.10;99.90
22974;DHT22;11653;50.848;4.584;2024-01-27T01:33:43;2.20;99.90
22974;DHT22;11653;50.848;4.584;2024-01-27T01:36:09;2.10;99.90
22974;DHT22;11653;50.848;4.584;2024-01-27T01:38:35;2.20;99.90
22974;DHT22;11653;50.848;4.584;2024-01-27T01:41:01;2.20;99.90
22974;DHT22;11653;50.848;4.584;2024-01-27T01:43:27;2.20;99.90
22974;DHT22;11653;50.848;4.584;2024-01-27T01:45:53;2.20;99.90
22974;DHT22;11653;50.848;4.584;2024-01-27T01:48:21;2.20;99.90
22974;DHT22;11653;50.848;4.584;2024-01-27T01:50:47;2.10;99.90
22974;DHT22;11653;50.848;4.584;2024-01-27T01:53:13;2.10;99.90
22974;DHT22;11653;50.848;4.584;2024-01-27T01:55:39;2.20;99.90
22974;DHT22;11653;50.848;4.584;2024-01-27T01:58:05;2.20;99.90
22974;DHT22;11653;50.848;4.584;2024-01-27T02:00:31;2.20;99.90
22974;DHT22;11653;50.848;4.584;2024-01-27T02:02:57;2.10;99.90
22974;DHT22;11653;50.848;4.584;2024-01-27T02:05:24;2.10;99.90
22974;DHT22;11653;50.848;4.584;2024-01-27T02:07:50;2.00;99.90
22974;DHT22;11653;50.848;4.584;2024-01-27T02:10:17;2.00;99.90
22974;DHT22;11653;50.848;4.584;2024-01-27T02:12:46;2.00;99.90
22974;DHT22;11653;50.848;4.584;2024-01-27T02:15:12;2.10;99.90
22974;DHT22;11653;50.848;4.584;2024-01-27T02:17:39;2.10;99.90
22974;DHT22;11653;50.848;4.584;2024-01-27T02:20:06;2.10;99.90
22974;DHT22;11653;50.848;4.584;2024-01-27T02:22:35;2.00;99.90
22974;DHT22;11653;50.848;4.584;2024-01-27T02:25:02;2.00;99.90
22974;DHT22;11653;50.848;4.584;2024-01-27T02:27:29;2.10;99.90
22974;DHT22;11653;50.848;4.584;2024-01-27T02:29:54;2.10;99.90
22974;DHT22;11653;50.848;4.584;2024-01-27T02:32:20;2.10;99.90
22974;DHT22;11653;50.848;4.584;2024-01-27T02:34:46;2.10;99.90
22974;DHT22;11653;50.848;4.584;2024-01-27T02:37:12;2.10;99.90
22974;DHT22;11653;50.848;4.584;2024-01-27T02:39:37;2.00;99.90
22974;DHT22;11653;50.848;4.584;2024-01-27T02:42:03;2.10;99.90
22974;DHT22;11653;50.848;4.584;2024-01-27T02:44:29;2.10;99.90
22974;DHT22;11653;50.848;4.584;2024-01-27T02:46:55;2.10;99.90
22974;DHT22;11653;50.848;4.584;2024-01-27T02:49:20;2.10;99.90
22974;DHT22;11653;50.848;4.584;2024-01-27T02:51:46;2.10;99.90
22974;DHT22;11653;50.848;4.584;2024-01-27T02:54:13;2.10;99.90
22974;DHT22;11653;50.848;4.584;2024-01-27T02:56:38;2.10;99.90
22974;DHT22;11653;50.848;4.584;2024-01-27T02:59:04;2.10;99.90
22974;DHT22;11653;50.848;4.584;2024-01-27T03:01:30;2.10;99.90
22974;DHT22;11653;50.848;4.584;2024-01-27T03:03:55;2.10;99.90
22974;DHT22;11653;50.848;4.584;2024-01-27T03:06:21;2.20;99.90
22974;DHT22;11653;50.848;4.584;2024-01-27T03:08:47;2.20;99.90
22974;DHT22;11653;50.848;4.584;2024-01-27T03:11:13;2.20;99.90
22974;DHT22;11653;50.848;4.584;2024-01-27T03:13:38;2.20;99.90
22974;DHT22;11653;50.848;4.584;2024-01-27T03:16:10;2.10;99.90
22974;DHT22;11653;50.848;4.584;2024-01-27T03:18:36;2.20;99.90
22974;DHT22;11653;50.848;4.584;2024-01-27T03:21:03;2.20;99.90
22974;DHT22;11653;50.848;4.584;2024-01-27T03:23:28;2.20;99.90
22974;DHT22;11653;50.848;4.584;2024-01-27T03:25:54;2.20;99.90
22974;DHT22;11653;50.848;4.584;2024-01-27T03:28:20;2.30;99.90
22974;DHT22;11653;50.848;4.584;2024-01-27T03:30:46;2.30;99.90
22974;DHT22;11653;50.848;4.584;2024-01-27T03:33:12;2.20;99.90
22974;DHT22;11653;50.848;4.584;2024-01-27T03:35:41;2.20;99.90
22974;DHT22;11653;50.848;4.584;2024-01-27T03:38:07;2.30;99.90
22974;DHT22;11653;50.848;4.584;2024-01-27T03:40:33;2.40;99.90
22974;DHT22;11653;50.848;4.584;2024-01-27T03:42:59;2.40;99.90
22974;DHT22;11653;50.848;4.584;2024-01-27T03:45:24;2.30;99.90
22974;DHT22;11653;50.848;4.584;2024-01-27T03:47:50;2.20;99.90
22974;DHT22;11653;50.848;4.584;2024-01-27T03:50:16;2.20;99.90
22974;DHT22;11653;50.848;4.584;2024-01-27T03:52:41;2.20;99.90
22974;DHT22;11653;50.848;4.584;2024-01-27T03:55:07;2.20;99.90
22974;DHT22;11653;50.848;4.584;2024-01-27T03:57:33;2.20;99.90
22974;DHT22;11653;50.848;4.584;2024-01-27T03:59:59;2.50;99.90
22974;DHT22;11653;50.848;4.584;2024-01-27T04:02:24;2.50;99.90
22974;DHT22;11653;50.848;4.584;2024-01-27T04:04:50;2.30;99.90
22974;DHT22;11653;50.848;4.584;2024-01-27T04:07:16;2.20;99.90
22974;DHT22;11653;50.848;4.584;2024-01-27T04:09:41;2.10;99.90
22974;DHT22;11653;50.848;4.584;2024-01-27T04:12:07;2.00;99.90
22974;DHT22;11653;50.848;4.584;2024-01-27T04:14:33;2.00;99.90
22974;DHT22;11653;50.848;4.584;2024-01-27T04:16:59;2.00;99.90
22974;DHT22;11653;50.848;4.584;2024-01-27T04:19:24;2.10;99.90
22974;DHT22;11653;50.848;4.584;2024-01-27T04:21:50;2.10;99.90
22974;DHT22;11653;50.848;4.584;2024-01-27T04:24:16;2.10;99.90
22974;DHT22;11653;50.848;4.584;2024-01-27T04:26:41;2.10;99.90
22974;DHT22;11653;50.848;4.584;2024-01-27T04:29:07;2.10;99.90
22974;DHT22;11653;50.848;4.584;2024-01-27T04:31:33;2.10;99.90
22974;DHT22;11653;50.848;4.584;2024-01-27T04:33:59;2.00;99.90
22974;DHT22;11653;50.848;4.584;2024-01-27T04:36:28;2.10;99.90
22974;DHT22;11653;50.848;4.584;2024-01-27T04:38:55;2.10;99.90
22974;DHT22;11653;50.848;4.584;2024-01-27T04:41:21;2.10;99.90
22974;DHT22;11653;50.848;4.584;2024-01-27T04:43:46;2.10;99.90
22974;DHT22;11653;50.848;4.584;2024-01-27T04:46:12;2.00;99.90
22974;DHT22;11653;50.848;4.584;2024-01-27T04:48:37;2.10;99.90
22974;DHT22;11653;50.848;4.584;2024-01-27T04:51:03;2.00;99.90
22974;DHT22;11653;50.848;4.584;2024-01-27T04:53:29;2.00;99.90
22974;DHT22;11653;50.848;4.584;2024-01-27T04:55:54;1.90;99.90
22974;DHT22;11653;50.848;4.584;2024-01-27T04:58:20;1.90;99.90
22974;DHT22;11653;50.848;4.584;2024-01-27T05:00:46;1.80;99.90
22974;DHT22;11653;50.848;4.584;2024-01-27T05:03:12;1.80;99.90
22974;DHT22;11653;50.848;4.584;2024-01-27T05:05:43;1.70;99.90
22974;DHT22;11653;50.848;4.584;2024-01-27T05:08:09;1.70;99.90
22974;DHT22;11653;50.848;4.584;2024-01-27T05:10:35;1.70;99.90
22974;DHT22;11653;50.848;4.584;2024-01-27T05:13:02;1.70;99.90
22974;DHT22;11653;50.848;4.584;2024-01-27T05:15:27;1.70;99.90
22974;DHT22;11653;50.848;4.584;2024-01-27T05:17:53;1.70;99.90
22974;DHT22;11653;50.848;4.584;2024-01-27T05:20:19;1.70;99.90
22974;DHT22;11653;50.848;4.584;2024-01-27T05:22:45;1.70;99.90
22974;DHT22;11653;50.848;4.584;2024-01-27T05:25:11;1.70;99.90
22974;DHT22;11653;50.848;4.584;2024-01-27T05:27:40;1.70;99.90
22974;DHT22;11653;50.848;4.584;2024-01-27T05:30:06;1.70;99.90
22974;DHT22;11653;50.848;4.584;2024-01-27T05:32:32;1.70;99.90
22974;DHT22;11653;50.848;4.584;2024-01-27T05:34:58;1.70;99.90
22974;DHT22;11653;50.848;4.584;2024-01-27T05:37:23;1.70;99.90
22974;DHT22;11653;50.848;4.584;2024-01-27T05:39:49;1.70;99.90
22974;DHT22;11653;50.848;4.584;2024-01-27T05:42:15;1.70;99.90
22974;DHT22;11653;50.848;4.584;2024-01-27T05:44:40;1.70;99.90
22974;DHT22;11653;50.848;4.584;2024-01-27T05:47:07;1.70;99.90
22974;DHT22;11653;50.848;4.584;2024-01-27T05:49:33;1.60;99.90
22974;DHT22;11653;50.848;4.584;2024-01-27T05:51:59;1.60;99.90
22974;DHT22;11653;50.848;4.584;2024-01-27T05:54:25;1.60;99.90
22974;DHT22;11653;50.848;4.584;2024-01-27T05:56:50;1.60;99.90
22974;DHT22;11653;50.848;4.584;2024-01-27T05:59:16;1.60;99.90
22974;DHT22;11653;50.848;4.584;2024-01-27T06:01:41;1.60;99.90
22974;DHT22;11653;50.848;4.584;2024-01-27T06:04:10;1.60;99.90
22974;DHT22;11653;50.848;4.584;2024-01-27T06:06:40;1.60;99.90
22974;DHT22;11653;50.848;4.584;2024-01-27T06:09:07;1.70;99.90
22974;DHT22;11653;50.848;4.584;2024-01-27T06:11:37;1.70;99.90
22974;DHT22;11653;50.848;4.584;2024-01-27T06:14:03;1.60;99.90
22974;DHT22;11653;50.848;4.584;2024-01-27T06:16:28;1.60;99.90
22974;DHT22;11653;50.848;4.584;2024-01-27T06:18:54;1.70;99.90
22974;DHT22;11653;50.848;4.584;2024-01-27T06:21:20;1.70;99.90
22974;DHT22;11653;50.848;4.584;2024-01-27T06:23:46;1.70;99.90
22974;DHT22;11653;50.848;4.584;2024-01-27T06:26:13;1.80;99.90
22974;DHT22;11653;50.848;4.584;2024-01-27T06:28:39;1.80;99.90
22974;DHT22;11653;50.848;4.584;2024-01-27T06:31:06;1.90;99.90
22974;DHT22;11653;50.848;4.584;2024-01-27T06:33:35;2.00;99.90
22974;DHT22;11653;50.848;4.584;2024-01-27T06:36:01;2.00;99.90
22974;DHT22;11653;50.848;4.584;2024-01-27T06:38:27;2.00;99.90
22974;DHT22;11653;50.848;4.584;2024-01-27T06:40:53;2.00;99.90
22974;DHT22;11653;50.848;4.584;2024-01-27T06:43:19;2.00;99.90
22974;DHT22;11653;50.848;4.584;2024-01-27T06:45:44;2.10;99.90
22974;DHT22;11653;50.848;4.584;2024-01-27T06:48:10;2.10;99.90
22974;DHT22;11653;50.848;4.584;2024-01-27T06:50:36;2.10;99.90
22974;DHT22;11653;50.848;4.584;2024-01-27T06:53:01;2.10;99.90
22974;DHT22;11653;50.848;4.584;2024-01-27T06:55:27;2.10;99.90
22974;DHT22;11653;50.848;4.584;2024-01-27T06:57:53;2.10;99.90
22974;DHT22;11653;50.848;4.584;2024-01-27T07:00:20;2.10;99.90
22974;DHT22;11653;50.848;4.584;2024-01-27T07:02:47;2.00;99.90
22974;DHT22;11653;50.848;4.584;2024-01-27T07:05:13;2.10;99.90
22974;DHT22;11653;50.848;4.584;2024-01-27T07:07:39;2.00;99.90
22974;DHT22;11653;50.848;4.584;2024-01-27T07:10:05;2.10;99.90
22974;DHT22;11653;50.848;4.584;2024-01-27T07:12:33;2.00;99.90
22974;DHT22;11653;50.848;4.584;2024-01-27T07:14:59;2.00;99.90
22974;DHT22;11653;50.848;4.584;2024-01-27T07:17:26;2.00;99.90
22974;DHT22;11653;50.848;4.584;2024-01-27T07:19:53;2.00;99.90
22974;DHT22;11653;50.848;4.584;2024-01-27T07:22:18;2.00;99.90
22974;DHT22;11653;50.848;4.584;2024-01-27T07:24:44;2.00;99.90
22974;DHT22;11653;50.848;4.584;2024-01-27T07:27:12;2.00;99.90
22974;DHT22;11653;50.848;4.584;2024-01-27T07:29:38;2.00;99.90
22974;DHT22;11653;50.848;4.584;2024-01-27T07:32:04;2.00;99.90
22974;DHT22;11653;50.848;4.584;2024-01-27T07:34:30;2.10;99.90
22974;DHT22;11653;50.848;4.584;2024-01-27T07:36:55;2.10;99.90
22974;DHT22;11653;50.848;4.584;2024-01-27T07:39:21;2.10;99.90
22974;DHT22;11653;50.848;4.584;2024-01-27T07:41:47;2.20;99.90
22974;DHT22;11653;50.848;4.584;2024-01-27T07:44:14;2.20;99.90
22974;DHT22;11653;50.848;4.584;2024-01-27T07:46:41;2.30;99.90
22974;DHT22;11653;50.848;4.584;2024-01-27T07:49:07;2.30;99.90
22974;DHT22;11653;50.848;4.584;2024-01-27T07:51:34;2.40;99.90
22974;DHT22;11653;50.848;4.584;2024-01-27T07:54:00;2.50;99.90
22974;DHT22;11653;50.848;4.584;2024-01-27T07:56:26;2.70;99.90
22974;DHT22;11653;50.848;4.584;2024-01-27T07:58:52;2.80;99.90
22974;DHT22;11653;50.848;4.584;2024-01-27T08:01:19;3.00;99.90
22974;DHT22;11653;50.848;4.584;2024-01-27T08:03:45;3.00;99.90
22974;DHT22;11653;50.848;4.584;2024-01-27T08:06:18;3.20;99.90
22974;DHT22;11653;50.848;4.584;2024-01-27T08:08:48;3.30;99.90
22974;DHT22;11653;50.848;4.584;2024-01-27T08:11:14;3.40;99.90
22974;DHT22;11653;50.848;4.584;2024-01-27T08:13:41;3.40;99.90
22974;DHT22;11653;50.848;4.584;2024-01-27T08:16:07;3.50;99.90
22974;DHT22;11653;50.848;4.584;2024-01-27T08:18:35;3.60;99.90
22974;DHT22;11653;50.848;4.584;2024-01-27T08:21:03;3.60;99.90
22974;DHT22;11653;50.848;4.584;2024-01-27T08:23:29;3.70;99.90
22974;DHT22;11653;50.848;4.584;2024-01-27T08:25:55;3.80;99.90
22974;DHT22;11653;50.848;4.584;2024-01-27T08:28:20;3.80;99.90
22974;DHT22;11653;50.848;4.584;2024-01-27T08:30:46;3.90;99.90
22974;DHT22;11653;50.848;4.584;2024-01-27T08:33:12;4.00;99.90
22974;DHT22;11653;50.848;4.584;2024-01-27T08:35:37;4.00;99.90
22974;DHT22;11653;50.848;4.584;2024-01-27T08:38:03;4.10;99.90
22974;DHT22;11653;50.848;4.584;2024-01-27T08:40:31;4.10;99.90
22974;DHT22;11653;50.848;4.584;2024-01-27T08:42:57;4.10;99.90
22974;DHT22;11653;50.848;4.584;2024-01-27T08:45:23;4.20;99.90
22974;DHT22;11653;50.848;4.584;2024-01-27T08:47:49;4.20;99.90
22974;DHT22;11653;50.848;4.584;2024-01-27T08:50:14;4.30;99.90
22974;DHT22;11653;50.848;4.584;2024-01-27T08:52:40;4.20;99.90
22974;DHT22;11653;50.848;4.584;2024-01-27T08:55:06;4.10;99.90
22974;DHT22;11653;50.848;4.584;2024-01-27T08:57:32;4.20;99.90
22974;DHT22;11653;50.848;4.584;2024-01-27T08:59:57;4.30;99.90
22974;DHT22;11653;50.848;4.584;2024-01-27T09:02:23;4.40;99.90
22974;DHT22;11653;50.848;4.584;2024-01-27T09:04:49;4.50;99.90
22974;DHT22;11653;50.848;4.584;2024-01-27T09:07:14;4.60;99.90
22974;DHT22;11653;50.848;4.584;2024-01-27T09:09:40;4.60;99.90
22974;DHT22;11653;50.848;4.584;2024-01-27T09:12:06;4.70;99.90
22974;DHT22;11653;50.848;4.584;2024-01-27T09:14:32;4.80;99.90
22974;DHT22;11653;50.848;4.584;2024-01-27T09:17:00;4.90;99.90
22974;DHT22;11653;50.848;4.584;2024-01-27T09:19:26;4.80;99.90
22974;DHT22;11653;50.848;4.584;2024-01-27T09:21:51;4.90;99.90
22974;DHT22;11653;50.848;4.584;2024-01-27T09:24:17;5.00;99.90
22974;DHT22;11653;50.848;4.584;2024-01-27T09:26:42;4.90;99.90
22974;DHT22;11653;50.848;4.584;2024-01-27T09:29:08;4.80;99.90
22974;DHT22;11653;50.848;4.584;2024-01-27T09:31:34;4.90;99.90
22974;DHT22;11653;50.848;4.584;2024-01-27T09:34:00;5.10;99.90
22974;DHT22;11653;50.848;4.584;2024-01-27T09:36:26;5.20;99.90
22974;DHT22;11653;50.848;4.584;2024-01-27T09:38:53;5.20;99.90
22974;DHT22;11653;50.848;4.584;2024-01-27T09:41:20;5.20;99.90
22974;DHT22;11653;50.848;4.584;2024-01-27T09:43:47;5.40;99.90
22974;DHT22;11653;50.848;4.584;2024-01-27T09:46:16;5.50;99.90
22974;DHT22;11653;50.848;4.584;2024-01-27T09:48:43;5.70;99.90
22974;DHT22;11653;50.848;4.584;2024-01-27T09:51:10;5.80;99.90
22974;DHT22;11653;50.848;4.584;2024-01-27T09:53:36;5.80;99.90
22974;DHT22;11653;50.848;4.584;2024-01-27T09:56:03;5.90;99.90
22974;DHT22;11653;50.848;4.584;2024-01-27T09:58:31;6.10;99.90
22974;DHT22;11653;50.848;4.584;2024-01-27T10:00:58;6.10;99.90
22974;DHT22;11653;50.848;4.584;2024-01-27T10:03:25;6.30;99.90
22974;DHT22;11653;50.848;4.584;2024-01-27T10:05:56;6.40;99.90
22974;DHT22;11653;50.848;4.584;2024-01-27T10:08:23;6.60;99.90
22974;DHT22;11653;50.848;4.584;2024-01-27T10:10:55;6.90;99.90
22974;DHT22;11653;50.848;4.584;2024-01-27T10:13:22;7.00;99.90
22974;DHT22;11653;50.848;4.584;2024-01-27T10:16:06;7.20;99.90
22974;DHT22;11653;50.848;4.584;2024-01-27T10:18:33;7.30;99.90
22974;DHT22;11653;50.848;4.584;2024-01-27T10:20:59;7.50;99.90
22974;DHT22;11653;50.848;4.584;2024-01-27T10:23:25;7.60;99.90
22974;DHT22;11653;50.848;4.584;2024-01-27T10:25:51;7.80;99.90
22974;DHT22;11653;50.848;4.584;2024-01-27T10:28:17;8.30;99.90
22974;DHT22;11653;50.848;4.584;2024-01-27T10:30:44;9.30;99.90
22974;DHT22;11653;50.848;4.584;2024-01-27T10:33:10;10.40;99.90
22974;DHT22;11653;50.848;4.584;2024-01-27T10:35:37;11.70;99.90
22974;DHT22;11653;50.848;4.584;2024-01-27T10:38:02;12.90;99.90
22974;DHT22;11653;50.848;4.584;2024-01-27T10:40:28;13.80;99.90
22974;DHT22;11653;50.848;4.584;2024-01-27T10:43:05;14.40;99.90
22974;DHT22;11653;50.848;4.584;2024-01-27T10:45:41;14.60;99.90
22974;DHT22;11653;50.848;4.584;2024-01-27T10:48:08;14.60;99.90
22974;DHT22;11653;50.848;4.584;2024-01-27T10:50:38;14.40;99.90
22974;DHT22;11653;50.848;4.584;2024-01-27T10:53:08;14.50;99.90
22974;DHT22;11653;50.848;4.584;2024-01-27T10:55:34;14.50;99.90
22974;DHT22;11653;50.848;4.584;2024-01-27T10:58:01;14.20;99.90
22974;DHT22;11653;50.848;4.584;2024-01-27T11:00:29;13.80;99.90
22974;DHT22;11653;50.848;4.584;2024-01-27T11:03:01;13.60;99.90
22974;DHT22;11653;50.848;4.584;2024-01-27T11:05:28;13.20;99.90
22974;DHT22;11653;50.848;4.584;2024-01-27T11:07:58;12.90;99.90
22974;DHT22;11653;50.848;4.584;2024-01-27T11:10:25;13.00;99.90
22974;DHT22;11653;50.848;4.584;2024-01-27T11:12:52;13.60;99.90
22974;DHT22;11653;50.848;4.584;2024-01-27T11:15:21;14.60;99.90
22974;DHT22;11653;50.848;4.584;2024-01-27T11:17:46;15.60;99.90
22974;DHT22;11653;50.848;4.584;2024-01-27T11:20:12;16.60;99.90
22974;DHT22;11653;50.848;4.584;2024-01-27T11:22:41;17.70;97.30
22974;DHT22;11653;50.848;4.584;2024-01-27T11:27:39;19.40;91.10
22974;DHT22;11653;50.848;4.584;2024-01-27T11:30:06;19.90;85.60
22974;DHT22;11653;50.848;4.584;2024-01-27T11:32:49;19.90;84.20
22974;DHT22;11653;50.848;4.584;2024-01-27T11:35:17;20.10;81.80
22974;DHT22;11653;50.848;4.584;2024-01-27T11:37:42;20.20;80.90
22974;DHT22;11653;50.848;4.584;2024-01-27T11:40:08;20.30;78.70
22974;DHT22;11653;50.848;4.584;2024-01-27T11:42:35;20.40;78.00
22974;DHT22;11653;50.848;4.584;2024-01-27T11:45:00;20.40;76.40
22974;DHT22;11653;50.848;4.584;2024-01-27T11:47:27;20.30;76.80
22974;DHT22;11653;50.848;4.584;2024-01-27T11:49:54;20.00;76.00
22974;DHT22;11653;50.848;4.584;2024-01-27T11:52:22;19.60;76.30
22974;DHT22;11653;50.848;4.584;2024-01-27T11:54:58;19.30;77.50
22974;DHT22;11653;50.848;4.584;2024-01-27T11:57:25;18.70;77.80
22974;DHT22;11653;50.848;4.584;2024-01-27T11:59:51;18.00;79.40
22974;DHT22;11653;50.848;4.584;2024-01-27T12:02:18;17.50;82.80
22974;DHT22;11653;50.848;4.584;2024-01-27T12:04:44;17.10;85.20
22974;DHT22;11653;50.848;4.584;2024-01-27T12:07:10;16.90;85.30
22974;DHT22;11653;50.848;4.584;2024-01-27T12:09:36;16.70;87.00
22974;DHT22;11653;50.848;4.584;2024-01-27T12:12:05;16.50;89.00
22974;DHT22;11653;50.848;4.584;2024-01-27T12:14:44;16.30;89.70
22974;DHT22;11653;50.848;4.584;2024-01-27T12:17:10;16.00;90.60
22974;DHT22;11653;50.848;4.584;2024-01-27T12:19:37;15.80;90.00
22974;DHT22;11653;50.848;4.584;2024-01-27T12:22:03;15.50;90.60
22974;DHT22;11653;50.848;4.584;2024-01-27T12:24:29;15.20;91.60
22974;DHT22;11653;50.848;4.584;2024-01-27T12:26:56;14.90;92.40
22974;DHT22;11653;50.848;4.584;2024-01-27T12:29:24;15.00;92.90
22974;DHT22;11653;50.848;4.584;2024-01-27T12:31:50;15.30;91.80
22974;DHT22;11653;50.848;4.584;2024-01-27T12:34:18;15.60;91.80
22974;DHT22;11653;50.848;4.584;2024-01-27T12:36:44;15.80;90.90
22974;DHT22;11653;50.848;4.584;2024-01-27T12:39:10;15.70;90.60
22974;DHT22;11653;50.848;4.584;2024-01-27T12:41:36;15.50;90.40
22974;DHT22;11653;50.848;4.584;2024-01-27T12:44:02;15.10;91.70
22974;DHT22;11653;50.848;4.584;2024-01-27T12:46:28;15.10;92.30
22974;DHT22;11653;50.848;4.584;2024-01-27T12:48:54;14.90;91.70
22974;DHT22;11653;50.848;4.584;2024-01-27T12:51:20;14.80;92.00
22974;DHT22;11653;50.848;4.584;2024-01-27T12:53:46;14.60;92.40
22974;DHT22;11653;50.848;4.584;2024-01-27T12:56:13;14.40;91.30
22974;DHT22;11653;50.848;4.584;2024-01-27T12:58:39;14.30;92.20
22974;DHT22;11653;50.848;4.584;2024-01-27T13:01:05;14.20;92.30
22974;DHT22;11653;50.848;4.584;2024-01-27T13:03:31;14.10;92.60
22974;DHT22;11653;50.848;4.584;2024-01-27T13:05:57;13.80;93.60
22974;DHT22;11653;50.848;4.584;2024-01-27T13:08:23;13.90;93.60
22974;DHT22;11653;50.848;4.584;2024-01-27T13:10:49;13.90;93.50
22974;DHT22;11653;50.848;4.584;2024-01-27T13:13:16;13.90;93.00
22974;DHT22;11653;50.848;4.584;2024-01-27T13:15:42;14.00;92.90
22974;DHT22;11653;50.848;4.584;2024-01-27T13:18:11;13.80;92.90
22974;DHT22;11653;50.848;4.584;2024-01-27T13:20:37;13.80;93.10
22974;DHT22;11653;50.848;4.584;2024-01-27T13:23:03;13.50;93.40
22974;DHT22;11653;50.848;4.584;2024-01-27T13:25:29;13.50;94.00
22974;DHT22;11653;50.848;4.584;2024-01-27T13:27:55;13.50;93.80
22974;DHT22;11653;50.848;4.584;2024-01-27T13:30:21;13.50;93.70
22974;DHT22;11653;50.848;4.584;2024-01-27T13:32:47;13.50;92.80
22974;DHT22;11653;50.848;4.584;2024-01-27T13:35:13;13.40;93.00
22974;DHT22;11653;50.848;4.584;2024-01-27T13:37:38;13.40;93.50
22974;DHT22;11653;50.848;4.584;2024-01-27T13:40:05;13.00;93.40
22974;DHT22;11653;50.848;4.584;2024-01-27T13:42:35;12.60;94.70
22974;DHT22;11653;50.848;4.584;2024-01-27T13:45:01;12.40;94.30
22974;DHT22;11653;50.848;4.584;2024-01-27T13:47:27;12.30;95.30
22974;DHT22;11653;50.848;4.584;2024-01-27T13:49:53;12.30;95.70
22974;DHT22;11653;50.848;4.584;2024-01-27T13:52:19;12.30;94.60
22974;DHT22;11653;50.848;4.584;2024-01-27T13:54:45;12.40;95.10
22974;DHT22;11653;50.848;4.584;2024-01-27T13:57:11;12.20;95.60
22974;DHT22;11653;50.848;4.584;2024-01-27T13:59:37;12.20;95.40
22974;DHT22;11653;50.848;4.584;2024-01-27T14:02:03;12.10;95.70
22974;DHT22;11653;50.848;4.584;2024-01-27T14:04:29;12.10;96.20
22974;DHT22;11653;50.848;4.584;2024-01-27T14:06:55;12.10;97.10
22974;DHT22;11653;50.848;4.584;2024-01-27T14:09:22;12.10;97.00
22974;DHT22;11653;50.848;4.584;2024-01-27T14:11:47;12.10;96.90
22974;DHT22;11653;50.848;4.584;2024-01-27T14:14:13;12.10;97.40
22974;DHT22;11653;50.848;4.584;2024-01-27T14:16:39;12.20;97.50
22974;DHT22;11653;50.848;4.584;2024-01-27T14:19:05;12.30;97.30
22974;DHT22;11653;50.848;4.584;2024-01-27T14:21:32;12.10;97.80
22974;DHT22;11653;50.848;4.584;2024-01-27T14:23:57;12.10;97.20
22974;DHT22;11653;50.848;4.584;2024-01-27T14:26:28;12.10;98.60
22974;DHT22;11653;50.848;4.584;2024-01-27T14:28:54;12.00;98.20
22974;DHT22;11653;50.848;4.584;2024-01-27T14:31:21;12.00;98.80
22974;DHT22;11653;50.848;4.584;2024-01-27T14:33:47;11.90;98.30
22974;DHT22;11653;50.848;4.584;2024-01-27T14:36:13;11.80;98.50
22974;DHT22;11653;50.848;4.584;2024-01-27T14:38:39;11.70;98.70
22974;DHT22;11653;50.848;4.584;2024-01-27T14:41:09;11.70;99.50
22974;DHT22;11653;50.848;4.584;2024-01-27T14:43:38;11.60;99.80
22974;DHT22;11653;50.848;4.584;2024-01-27T14:46:04;11.50;99.90
22974;DHT22;11653;50.848;4.584;2024-01-27T14:48:30;11.50;99.90
22974;DHT22;11653;50.848;4.584;2024-01-27T14:50:56;11.40;99.90
22974;DHT22;11653;50.848;4.584;2024-01-27T14:53:25;11.40;99.90
22974;DHT22;11653;50.848;4.584;2024-01-27T14:55:51;11.40;99.90
22974;DHT22;11653;50.848;4.584;2024-01-27T14:58:17;11.40;99.90
22974;DHT22;11653;50.848;4.584;2024-01-27T15:00:43;11.30;99.90
22974;DHT22;11653;50.848;4.584;2024-01-27T15:03:09;11.20;99.90
22974;DHT22;11653;50.848;4.584;2024-01-27T15:05:38;11.10;99.90
22974;DHT22;11653;50.848;4.584;2024-01-27T15:08:06;11.10;99.90
22974;DHT22;11653;50.848;4.584;2024-01-27T15:10:32;11.00;99.90
22974;DHT22;11653;50.848;4.584;2024-01-27T15:12:58;10.90;99.90
22974;DHT22;11653;50.848;4.584;2024-01-27T15:15:25;10.90;99.90
22974;DHT22;11653;50.848;4.584;2024-01-27T15:17:51;10.90;99.90
22974;DHT22;11653;50.848;4.584;2024-01-27T15:20:16;10.90;99.90
22974;DHT22;11653;50.848;4.584;2024-01-27T15:22:42;10.80;99.90
22974;DHT22;11653;50.848;4.584;2024-01-27T15:25:08;10.80;99.90
22974;DHT22;11653;50.848;4.584;2024-01-27T15:27:34;10.70;99.90
22974;DHT22;11653;50.848;4.584;2024-01-27T15:30:00;10.70;99.90
22974;DHT22;11653;50.848;4.584;2024-01-27T15:32:25;10.70;99.90
22974;DHT22;11653;50.848;4.584;2024-01-27T15:34:53;10.60;99.90
22974;DHT22;11653;50.848;4.584;2024-01-27T15:37:19;10.60;99.90